首页
METAR-TAF:

METAR-TAF

机场 :

Hall Beach, 努那武特, 加拿大

纬度: 68-47N, 经度: 081-15W, 海拔: 8米

当前天气观测

该预报发布于34分钟前的18:00 UTC
风速15节,风向南转西南
温度 18°C
湿度 59%
气压 1005 hPa
能見度: 16.1公里
少量云层高于3000英尺
少量云层高于10000英尺

METAR: CYUX 151800Z 21015KT 10SM FEW030 FEW100 18/10 A2969 RMK SC2AC1 AC TR CU ASOCTD SLP055 DENSITY ALT 700FT

时间: 14:34 (18:34 UTC)

预报

该预报发布于5小时和54分钟前的12:40 UTC
预报有效从15日的 13点(UTC)到 16日的 01点(UTC)
风速10节,风向西
能見度: 10公里
少量云层高于2000英尺
少量云层高于7000英尺
从 15日的 1800点(UTC)
风速10节,风向西转西南
能見度: 10公里
散云层高于20000英尺

TAF: CYUX 151240Z 1513/1601 28010KT P6SM FEW020 FEW070 FM151800 24010KT P6SM SCT200 RMK FCST BASED ON AUTO OBS. NXT FCST BY 151900Z

超过4000个机场的气象观测和天气预报(METAR&TAF报告)。

可查询的气象台以黄色和红色小点在地图上表示。

将鼠标移到小点上方,可查看气象台名称。

然后点击查看天气观测和预报。

如需切换地图:点击带黑十字的绿色按钮放大地图;点击带横线的绿色按钮缩小地图;或者点击绿色箭头查看邻近地区的地图。


METAR-TAF: